createdAt,value
2023-06-04T00:00:41.981Z,3.5
2023-06-04T00:01:42.030Z,3.71429
2023-06-04T00:02:42.136Z,3.85714
2023-06-04T00:03:42.179Z,3.85714
2023-06-04T00:04:42.135Z,4.35714
2023-06-04T00:05:41.103Z,3.92857
2023-06-04T00:06:41.128Z,4.14286
2023-06-04T00:07:41.196Z,3.92857
2023-06-04T00:08:41.203Z,4.14286
2023-06-04T00:09:41.210Z,3.85714
2023-06-04T00:10:41.224Z,3.64286
2023-06-04T00:11:41.260Z,3.5
2023-06-04T00:12:41.257Z,3.5
2023-06-04T00:13:41.288Z,3.5
2023-06-04T00:14:41.297Z,3.42857
2023-06-04T00:15:41.313Z,3.14286
2023-06-04T00:16:41.394Z,3.35714
2023-06-04T00:17:41.380Z,3.14286
2023-06-04T00:18:41.359Z,3
2023-06-04T00:19:41.364Z,3.35714
2023-06-04T00:20:41.396Z,3.21429
2023-06-04T00:21:41.413Z,3.42857
2023-06-04T00:22:41.394Z,3.42857
2023-06-04T00:23:41.454Z,3.35714
2023-06-04T00:24:41.412Z,3.64286
2023-06-04T00:25:41.442Z,3.64286
2023-06-04T00:26:41.501Z,3.71429
2023-06-04T00:27:41.504Z,3.64286
2023-06-04T00:28:41.508Z,3.85714
2023-06-04T00:29:41.532Z,3.71429
2023-06-04T00:30:41.566Z,3.64286
2023-06-04T00:31:41.587Z,3.21429
2023-06-04T00:32:41.619Z,3.42857
2023-06-04T00:33:41.608Z,3.35714
2023-06-04T00:34:41.647Z,3.85714
2023-06-04T00:35:41.651Z,3.42857
2023-06-04T00:36:41.699Z,3.85714
2023-06-04T00:37:41.677Z,3.42857
2023-06-04T00:38:41.707Z,3.35714
2023-06-04T00:39:41.726Z,3.42857
2023-06-04T00:40:41.716Z,3.64286
2023-06-04T00:41:41.735Z,3.64286
2023-06-04T00:42:41.745Z,3.35714
2023-06-04T00:43:41.763Z,3.85714
2023-06-04T00:44:41.775Z,3.64286
2023-06-04T00:45:41.815Z,3.64286
2023-06-04T00:46:41.782Z,3.71429
2023-06-04T00:47:41.837Z,4.14286
2023-06-04T00:48:41.803Z,3.64286
2023-06-04T00:49:41.862Z,3.64286
2023-06-04T00:50:41.856Z,3.71429
2023-06-04T00:51:41.877Z,3.42857
2023-06-04T00:52:41.904Z,4
2023-06-04T00:53:41.925Z,3.92857
2023-06-04T00:54:41.964Z,3.5
2023-06-04T00:55:41.987Z,3.85714
2023-06-04T00:56:41.988Z,3.71429
2023-06-04T00:57:42.009Z,4.14286
2023-06-04T00:58:42.035Z,3.85714
2023-06-04T00:59:42.063Z,3.92857
2023-06-04T01:00:42.112Z,3.85714
2023-06-04T01:01:41.265Z,3.92857
2023-06-04T01:02:41.157Z,3.92857
2023-06-04T01:03:41.151Z,4
2023-06-04T01:04:41.140Z,3.85714
2023-06-04T01:05:41.157Z,3.92857
2023-06-04T01:06:41.167Z,3.85714
2023-06-04T01:07:41.183Z,3.92857
2023-06-04T01:08:41.178Z,3.42857
2023-06-04T01:09:41.185Z,3.35714
2023-06-04T01:10:41.197Z,4.21429
2023-06-04T01:11:41.223Z,3.42857
2023-06-04T01:12:41.256Z,3.71429
2023-06-04T01:13:41.265Z,3.64286
2023-06-04T01:14:41.287Z,3.64286
2023-06-04T01:15:41.309Z,3.14286
2023-06-04T01:16:41.356Z,3.42857
2023-06-04T01:17:41.398Z,3.21429
2023-06-04T01:18:41.381Z,3.14286
2023-06-04T01:19:41.405Z,3.14286
2023-06-04T01:20:41.422Z,3.35714
2023-06-04T01:21:41.433Z,3
2023-06-04T01:22:41.473Z,3.5
2023-06-04T01:23:41.498Z,3.21429
2023-06-04T01:24:41.482Z,3.35714
2023-06-04T01:25:41.502Z,3.14286
2023-06-04T01:26:41.510Z,3
2023-06-04T01:27:41.548Z,3.35714
2023-06-04T01:28:41.570Z,2.92857
2023-06-04T01:29:41.554Z,2.71429
2023-06-04T01:30:41.571Z,3.35714
2023-06-04T01:31:41.615Z,3.14286
2023-06-04T01:32:41.657Z,3.14286
2023-06-04T01:33:41.587Z,3.14286
2023-06-04T01:34:41.617Z,2.71429
2023-06-04T01:35:41.643Z,2.85714
2023-06-04T01:36:41.679Z,3
2023-06-04T01:37:41.704Z,3
2023-06-04T01:38:41.728Z,2.92857
2023-06-04T01:39:41.746Z,2.71429
2023-06-04T01:40:41.761Z,2.85714
2023-06-04T01:41:41.784Z,3.35714
2023-06-04T01:42:41.805Z,3.14286
2023-06-04T01:43:41.859Z,3
2023-06-04T01:44:41.856Z,2.85714
2023-06-04T01:45:41.885Z,3.21429
2023-06-04T01:46:41.927Z,2.85714
2023-06-04T01:47:41.949Z,2.85714
2023-06-04T01:48:42.033Z,2.92857
2023-06-04T01:49:41.972Z,3
2023-06-04T01:50:41.994Z,2.92857
2023-06-04T01:51:41.997Z,3
2023-06-04T01:52:42.012Z,3.35714
2023-06-04T01:53:42.016Z,3
2023-06-04T01:54:42.037Z,2.64286
2023-06-04T01:55:42.033Z,2.92857
2023-06-04T01:56:42.043Z,2.85714
2023-06-04T01:57:42.041Z,2.85714
2023-06-04T01:58:42.081Z,2.92857
2023-06-04T01:59:42.091Z,2.64286
2023-06-04T02:00:41.109Z,2.85714
2023-06-04T02:01:41.174Z,2.92857
2023-06-04T02:02:41.209Z,2.71429
2023-06-04T02:03:41.220Z,3.14286
2023-06-04T02:04:41.216Z,2.85714
2023-06-04T02:05:41.242Z,2.92857
2023-06-04T02:06:41.241Z,2.85714
2023-06-04T02:07:41.272Z,2.85714
2023-06-04T02:08:41.286Z,2.85714
2023-06-04T02:09:41.313Z,2.92857
2023-06-04T02:10:41.335Z,2.85714
2023-06-04T02:11:41.336Z,2.64286
2023-06-04T02:12:41.384Z,3
2023-06-04T02:13:41.355Z,2.92857
2023-06-04T02:14:41.373Z,2.71429
2023-06-04T02:15:41.393Z,2.64286
2023-06-04T02:16:41.446Z,2.85714
2023-06-04T02:17:41.477Z,2.92857
2023-06-04T02:18:41.416Z,2.71429
2023-06-04T02:19:41.421Z,2.92857
2023-06-04T02:20:41.442Z,3
2023-06-04T02:21:41.496Z,3
2023-06-04T02:22:41.506Z,2.92857
2023-06-04T02:23:41.573Z,2.71429
2023-06-04T02:24:41.546Z,2.92857
2023-06-04T02:25:41.566Z,2.85714
2023-06-04T02:26:41.617Z,2.85714
2023-06-04T02:27:41.596Z,2.92857
2023-06-04T02:28:41.611Z,2.64286
2023-06-04T02:29:41.634Z,3.21429
2023-06-04T02:30:41.655Z,3
2023-06-04T02:31:41.702Z,3
2023-06-04T02:32:41.736Z,3
2023-06-04T02:33:41.689Z,2.85714
2023-06-04T02:34:41.715Z,3.35714
2023-06-04T02:35:41.720Z,3.14286
2023-06-04T02:36:41.730Z,2.92857
2023-06-04T02:37:41.745Z,3.64286
2023-06-04T02:38:41.747Z,3
2023-06-04T02:39:41.765Z,2.92857
2023-06-04T02:40:41.759Z,3
2023-06-04T02:41:41.797Z,2.92857
2023-06-04T02:42:41.827Z,2.92857
2023-06-04T02:43:41.846Z,3
2023-06-04T02:44:41.860Z,2.71429
2023-06-04T02:45:41.893Z,2.85714
2023-06-04T02:46:41.907Z,3
2023-06-04T02:47:41.970Z,2.92857
2023-06-04T02:48:41.945Z,3.35714
2023-06-04T02:49:41.975Z,2.85714
2023-06-04T02:50:41.988Z,3
2023-06-04T02:51:42.009Z,3
2023-06-04T02:52:44.016Z,2.85714
2023-06-04T02:53:42.038Z,3.14286
2023-06-04T02:54:42.064Z,2.85714
2023-06-04T02:55:42.071Z,2.85714
2023-06-04T02:56:42.082Z,2.71429
2023-06-04T02:57:42.083Z,3.21429
2023-06-04T02:58:41.086Z,2.92857
2023-06-04T02:59:41.107Z,3.14286
2023-06-04T03:00:41.107Z,2.85714
2023-06-04T03:01:41.127Z,2.71429
2023-06-04T03:02:41.150Z,3
2023-06-04T03:03:41.165Z,3
2023-06-04T03:04:41.174Z,3.35714
2023-06-04T03:05:41.185Z,3
2023-06-04T03:06:41.219Z,3
2023-06-04T03:07:41.232Z,3.21429
2023-06-04T03:08:41.306Z,3.14286
2023-06-04T03:09:41.276Z,3.14286
2023-06-04T03:10:41.298Z,3.21429
2023-06-04T03:11:41.323Z,3
2023-06-04T03:12:41.343Z,2.92857
2023-06-04T03:13:41.365Z,2.71429
2023-06-04T03:14:41.374Z,3
2023-06-04T03:15:41.450Z,2.92857
2023-06-04T03:16:41.408Z,3
2023-06-04T03:17:41.484Z,3.21429
2023-06-04T03:18:41.441Z,2.71429
2023-06-04T03:19:41.454Z,2.85714
2023-06-04T03:20:41.465Z,3.64286
2023-06-04T03:21:41.466Z,2.85714
2023-06-04T03:22:41.498Z,3.14286
2023-06-04T03:23:41.586Z,3.71429
2023-06-04T03:24:41.482Z,3.71429
2023-06-04T03:25:41.497Z,3.5
2023-06-04T03:26:41.528Z,3.21429
2023-06-04T03:27:41.555Z,3.14286
2023-06-04T03:28:41.574Z,3.35714
2023-06-04T03:29:41.607Z,3.71429
2023-06-04T03:30:41.622Z,3.5
2023-06-04T03:31:41.672Z,3.64286
2023-06-04T03:32:41.685Z,3.35714
2023-06-04T03:33:41.689Z,3.71429
2023-06-04T03:34:41.725Z,3.42857
2023-06-04T03:35:41.735Z,3.35714
2023-06-04T03:36:41.750Z,3.42857
2023-06-04T03:37:41.764Z,3.35714
2023-06-04T03:38:41.817Z,3.71429
2023-06-04T03:39:41.811Z,3.85714
2023-06-04T03:40:41.829Z,3.5
2023-06-04T03:41:41.870Z,3.21429
2023-06-04T03:42:41.863Z,3.5
2023-06-04T03:43:41.885Z,3.14286
2023-06-04T03:44:41.904Z,3.21429
2023-06-04T03:45:41.919Z,3.5
2023-06-04T03:46:41.939Z,3.35714
2023-06-04T03:47:41.978Z,2.92857
2023-06-04T03:48:41.919Z,3
2023-06-04T03:49:41.925Z,3.71429
2023-06-04T03:50:41.980Z,3.35714
2023-06-04T03:51:41.981Z,3
2023-06-04T03:52:42.014Z,3.35714
2023-06-04T03:53:42.028Z,3.21429
2023-06-04T03:54:42.046Z,2.92857
2023-06-04T03:55:42.083Z,2.71429
2023-06-04T03:56:42.084Z,3.14286
2023-06-04T03:57:41.105Z,3
2023-06-04T03:58:41.112Z,3.14286
2023-06-04T03:59:41.130Z,3.14286
2023-06-04T04:00:41.191Z,3.21429
2023-06-04T04:01:41.220Z,3.21429
2023-06-04T04:02:41.276Z,3.21429
2023-06-04T04:03:41.348Z,3.21429
2023-06-04T04:04:41.217Z,3.35714
2023-06-04T04:05:41.224Z,3.42857
2023-06-04T04:06:41.253Z,3
2023-06-04T04:07:41.252Z,3.21429
2023-06-04T04:08:41.252Z,3.35714
2023-06-04T04:09:41.280Z,3.5
2023-06-04T04:10:41.275Z,3.21429
2023-06-04T04:11:41.293Z,3.35714
2023-06-04T04:12:41.364Z,3.42857
2023-06-04T04:13:41.352Z,3.35714
2023-06-04T04:14:41.357Z,3.21429
2023-06-04T04:15:41.382Z,2.92857
2023-06-04T04:16:41.470Z,3
2023-06-04T04:17:41.450Z,3.21429
2023-06-04T04:18:41.477Z,2.92857
2023-06-04T04:19:41.482Z,3.35714
2023-06-04T04:20:41.505Z,3.21429
2023-06-04T04:21:41.524Z,3.35714
2023-06-04T04:22:41.554Z,3.14286
2023-06-04T04:23:41.633Z,3.64286
2023-06-04T04:24:41.595Z,3.5
2023-06-04T04:25:41.602Z,3.35714
2023-06-04T04:26:41.630Z,3.14286
2023-06-04T04:27:41.653Z,3
2023-06-04T04:28:41.657Z,3
2023-06-04T04:29:41.672Z,3.14286
2023-06-04T04:30:41.721Z,3.5
2023-06-04T04:31:41.810Z,3.14286
2023-06-04T04:32:41.718Z,3.21429
2023-06-04T04:33:41.745Z,2.85714
2023-06-04T04:34:41.709Z,3.14286
2023-06-04T04:35:41.704Z,3.14286
2023-06-04T04:36:41.729Z,3.35714
2023-06-04T04:37:41.755Z,3.14286
2023-06-04T04:38:41.791Z,3
2023-06-04T04:39:41.811Z,3.21429
2023-06-04T04:40:41.829Z,3.14286
2023-06-04T04:41:41.847Z,3.35714
2023-06-04T04:42:41.873Z,3.42857
2023-06-04T04:43:41.901Z,3.42857
2023-06-04T04:44:41.906Z,3.14286
2023-06-04T04:45:41.921Z,3
2023-06-04T04:46:42.001Z,3.35714
2023-06-04T04:47:41.984Z,3.14286
2023-06-04T04:48:41.965Z,3.42857
2023-06-04T04:49:41.980Z,3.35714
2023-06-04T04:50:41.997Z,3.42857
2023-06-04T04:51:42.011Z,3.21429
2023-06-04T04:52:42.048Z,3.5
2023-06-04T04:53:42.030Z,3.71429
2023-06-04T04:54:42.027Z,3.35714
2023-06-04T04:55:42.025Z,3.35714
2023-06-04T04:56:42.053Z,3.42857
2023-06-04T04:57:42.090Z,3.42857
2023-06-04T04:58:42.082Z,3.64286
2023-06-04T04:59:41.159Z,3.35714
2023-06-04T05:00:41.149Z,3.71429
2023-06-04T05:01:41.205Z,3.21429
2023-06-04T05:02:41.182Z,3.14286
2023-06-04T05:03:41.268Z,3.5
2023-06-04T05:04:41.279Z,3.14286
2023-06-04T05:05:41.239Z,3.42857
2023-06-04T05:06:41.289Z,3.42857
2023-06-04T05:07:41.290Z,3.64286
2023-06-04T05:08:41.307Z,3.64286
2023-06-04T05:09:41.312Z,3.21429
2023-06-04T05:10:41.352Z,3.42857
2023-06-04T05:11:41.379Z,3.21429
2023-06-04T05:12:41.381Z,3.21429
2023-06-04T05:13:41.409Z,3.35714
2023-06-04T05:14:41.390Z,3.21429
2023-06-04T05:15:41.385Z,3.64286
2023-06-04T05:16:43.485Z,3.14286
2023-06-04T05:17:41.434Z,3.14286
2023-06-04T05:18:41.443Z,3.21429
2023-06-04T05:19:41.450Z,3.42857
2023-06-04T05:20:41.485Z,3.42857
2023-06-04T05:21:41.511Z,3.42857
2023-06-04T05:22:41.538Z,3.42857
2023-06-04T05:23:41.585Z,3.14286
2023-06-04T05:24:41.571Z,3.21429
2023-06-04T05:25:41.597Z,2.92857
2023-06-04T05:26:41.597Z,3.14286
2023-06-04T05:27:41.617Z,3.14286
2023-06-04T05:28:41.638Z,3.42857
2023-06-04T05:29:41.658Z,3.35714
2023-06-04T05:30:41.700Z,3.42857
2023-06-04T05:31:41.775Z,3.21429
2023-06-04T05:32:41.954Z,3.5
2023-06-04T05:33:41.732Z,3.5
2023-06-04T05:34:41.738Z,3.14286
2023-06-04T05:35:41.753Z,3.5
2023-06-04T05:36:41.778Z,3.5
2023-06-04T05:37:41.765Z,3.21429
2023-06-04T05:38:41.778Z,3.21429
2023-06-04T05:39:41.792Z,3
2023-06-04T05:40:41.791Z,3.42857
2023-06-04T05:41:41.827Z,3.42857
2023-06-04T05:42:41.837Z,3
2023-06-04T05:43:41.851Z,3.14286
2023-06-04T05:44:41.877Z,3.35714
2023-06-04T05:45:41.951Z,3.14286
2023-06-04T05:46:41.950Z,3.21429
2023-06-04T05:47:41.983Z,3.14286
2023-06-04T05:48:41.974Z,3.64286
2023-06-04T05:49:41.997Z,3.35714
2023-06-04T05:50:42.017Z,3.21429
2023-06-04T05:51:42.040Z,3.35714
2023-06-04T05:52:42.050Z,3.21429
2023-06-04T05:53:42.095Z,3.21429
2023-06-04T05:54:41.103Z,3.21429
2023-06-04T05:55:41.154Z,3.21429
2023-06-04T05:56:41.148Z,3.14286
2023-06-04T05:57:41.167Z,3.21429
2023-06-04T05:58:41.176Z,3.21429
2023-06-04T05:59:41.188Z,2.71429
2023-06-04T06:00:41.197Z,3.35714
2023-06-04T06:01:41.222Z,2.64286
2023-06-04T06:02:41.344Z,2.85714
2023-06-04T06:03:41.272Z,3.21429
2023-06-04T06:04:41.474Z,3
2023-06-04T06:05:41.248Z,2.85714
2023-06-04T06:06:41.256Z,2.64286
2023-06-04T06:07:41.363Z,2.5
2023-06-04T06:08:41.298Z,2.71429
2023-06-04T06:09:41.315Z,2.92857
2023-06-04T06:10:41.333Z,2.64286
2023-06-04T06:11:41.363Z,2.85714
2023-06-04T06:12:41.404Z,2.42857
2023-06-04T06:13:41.448Z,2.85714
2023-06-04T06:14:41.437Z,2.71429
2023-06-04T06:15:41.478Z,2.64286
2023-06-04T06:16:41.461Z,2.64286
2023-06-04T06:17:41.537Z,2.5
2023-06-04T06:18:41.514Z,2.71429
2023-06-04T06:19:41.522Z,2.64286
2023-06-04T06:20:41.532Z,2.85714
2023-06-04T06:21:41.546Z,3
2023-06-04T06:22:41.549Z,2.71429
2023-06-04T06:23:41.641Z,2.71429
2023-06-04T06:24:41.588Z,2.5
2023-06-04T06:25:41.683Z,2.85714
2023-06-04T06:26:41.604Z,2.64286
2023-06-04T06:27:41.635Z,2.64286
2023-06-04T06:28:41.619Z,2.71429
2023-06-04T06:29:41.626Z,2.64286
2023-06-04T06:30:41.648Z,2.64286
2023-06-04T06:31:41.745Z,2.5
2023-06-04T06:32:41.744Z,2.64286
2023-06-04T06:33:41.728Z,2.64286
2023-06-04T06:34:41.768Z,2.85714
2023-06-04T06:35:41.774Z,2.71429
2023-06-04T06:36:41.801Z,2.5
2023-06-04T06:37:41.814Z,2.85714
2023-06-04T06:38:41.916Z,2.92857
2023-06-04T06:39:41.894Z,2.85714
2023-06-04T06:40:41.880Z,3.64286
2023-06-04T06:41:41.904Z,6.71429
2023-06-04T06:42:41.917Z,5.35714
2023-06-04T06:43:41.943Z,3.21429
2023-06-04T06:44:41.972Z,2.85714
2023-06-04T06:45:41.979Z,2.85714
2023-06-04T06:46:42.033Z,2.5
2023-06-04T06:47:42.084Z,2.71429
2023-06-04T06:48:42.014Z,2.5
2023-06-04T06:49:42.035Z,2.35714
2023-06-04T06:50:42.052Z,2.42857
2023-06-04T06:51:42.057Z,2.14286
2023-06-04T06:52:42.071Z,2.42857
2023-06-04T06:53:42.098Z,2.14286
2023-06-04T06:54:41.094Z,2.21429
2023-06-04T06:55:41.111Z,2.14286
2023-06-04T06:56:41.131Z,2.35714
2023-06-04T06:57:41.162Z,2.14286
2023-06-04T06:58:41.179Z,1.92857
2023-06-04T06:59:41.209Z,1.92857
2023-06-04T07:00:41.256Z,1.85714
2023-06-04T07:01:41.268Z,1.92857
2023-06-04T07:02:41.412Z,2
2023-06-04T07:03:41.327Z,1.92857
2023-06-04T07:04:41.324Z,1.85714
2023-06-04T07:05:41.359Z,1.71429
2023-06-04T07:06:41.362Z,1.92857
2023-06-04T07:07:41.374Z,2.14286
2023-06-04T07:08:41.402Z,1.92857
2023-06-04T07:09:41.415Z,1.85714
2023-06-04T07:10:41.434Z,1.85714
2023-06-04T07:11:41.447Z,1.64286
2023-06-04T07:12:43.632Z,1.71429
2023-06-04T07:13:41.468Z,1.92857
2023-06-04T07:14:41.472Z,1.85714
2023-06-04T07:15:41.487Z,1.71429
2023-06-04T07:16:41.522Z,2.14286
2023-06-04T07:17:41.550Z,1.92857
2023-06-04T07:18:41.500Z,1.71429
2023-06-04T07:19:41.512Z,1.71429
2023-06-04T07:20:41.547Z,1.64286
2023-06-04T07:21:41.572Z,2
2023-06-04T07:22:41.578Z,1.71429
2023-06-04T07:23:41.655Z,1.71429
2023-06-04T07:24:41.633Z,1.71429
2023-06-04T07:25:41.660Z,2
2023-06-04T07:26:41.699Z,1.85714
2023-06-04T07:27:41.725Z,1.64286
2023-06-04T07:28:41.708Z,1.5
2023-06-04T07:29:41.745Z,1.85714
2023-06-04T07:30:41.750Z,1.85714
2023-06-04T07:31:41.790Z,1.64286
2023-06-04T07:32:41.801Z,1.71429
2023-06-04T07:33:41.794Z,1.64286
2023-06-04T07:34:41.794Z,1.71429
2023-06-04T07:35:41.794Z,1.92857
2023-06-04T07:36:41.796Z,1.42857
2023-06-04T07:37:41.809Z,1.85714
2023-06-04T07:38:41.860Z,2
2023-06-04T07:39:41.845Z,1.64286
2023-06-04T07:40:41.857Z,1.64286
2023-06-04T07:41:41.886Z,1.92857
2023-06-04T07:42:41.917Z,2
2023-06-04T07:43:41.960Z,2
2023-06-04T07:44:41.974Z,2.14286
2023-06-04T07:45:41.977Z,4
2023-06-04T07:46:42.130Z,2.35714
2023-06-04T07:47:42.038Z,1.92857
2023-06-04T07:48:42.051Z,1.71429
2023-06-04T07:49:50.888Z,1.71429
2023-06-04T07:50:42.067Z,1.71429
2023-06-04T07:51:42.081Z,1.71429
2023-06-04T07:52:41.266Z,1.92857
2023-06-04T07:53:41.201Z,1.5
2023-06-04T07:54:41.185Z,1.64286
2023-06-04T07:55:41.187Z,1.71429
2023-06-04T07:56:41.206Z,1.92857
2023-06-04T07:57:41.208Z,1.71429
2023-06-04T07:58:41.233Z,1.85714
2023-06-04T07:59:41.276Z,1.71429
2023-06-04T08:00:41.210Z,2
2023-06-04T08:01:41.253Z,1.85714
2023-06-04T08:02:41.422Z,2.42857
2023-06-04T08:03:41.498Z,1.92857
2023-06-04T08:04:41.381Z,2.14286
2023-06-04T08:05:41.306Z,1.64286
2023-06-04T08:06:41.322Z,1.5
2023-06-04T08:07:41.398Z,1.85714
2023-06-04T08:08:41.362Z,1.64286
2023-06-04T08:09:41.360Z,1.92857
2023-06-04T08:10:41.386Z,1.85714
2023-06-04T08:11:41.392Z,1.71429
2023-06-04T08:12:41.433Z,1.71429
2023-06-04T08:13:41.464Z,1.71429
2023-06-04T08:14:41.456Z,2.14286
2023-06-04T08:15:41.435Z,2.42857
2023-06-04T08:16:41.668Z,2
2023-06-04T08:17:41.518Z,1.71429
2023-06-04T08:18:41.479Z,1.85714
2023-06-04T08:19:41.461Z,1.71429
2023-06-04T08:20:41.500Z,1.85714
2023-06-04T08:21:41.506Z,2.14286
2023-06-04T08:22:41.544Z,1.85714
2023-06-04T08:23:41.578Z,1.85714
2023-06-04T08:24:41.573Z,1.85714
2023-06-04T08:25:41.603Z,1.85714
2023-06-04T08:26:41.620Z,1.85714
2023-06-04T08:27:41.634Z,2.14286
2023-06-04T08:28:41.663Z,1.71429
2023-06-04T08:29:41.776Z,1.5
2023-06-04T08:30:41.706Z,1.92857
2023-06-04T08:31:41.806Z,1.64286
2023-06-04T08:32:41.774Z,2.42857
2023-06-04T08:33:41.792Z,2.5
2023-06-04T08:34:41.784Z,2.42857
2023-06-04T08:35:41.814Z,2.71429
2023-06-04T08:36:41.817Z,1.92857
2023-06-04T08:37:41.862Z,2
2023-06-04T08:38:41.870Z,2
2023-06-04T08:39:41.863Z,2.14286
2023-06-04T08:40:41.881Z,2
2023-06-04T08:41:41.875Z,1.71429
2023-06-04T08:42:41.891Z,2
2023-06-04T08:43:41.882Z,2
2023-06-04T08:44:41.905Z,1.64286
2023-06-04T08:45:42.161Z,2.21429
2023-06-04T08:46:42.011Z,1.71429
2023-06-04T08:47:42.052Z,1.92857
2023-06-04T08:48:42.004Z,2.35714
2023-06-04T08:49:42.028Z,1.85714
2023-06-04T08:50:42.046Z,2
2023-06-04T08:51:42.071Z,2
2023-06-04T08:52:41.125Z,2.14286
2023-06-04T08:53:41.164Z,1.92857
2023-06-04T08:54:41.139Z,2.14286
2023-06-04T08:55:41.164Z,2.14286
2023-06-04T08:56:41.188Z,2.42857
2023-06-04T08:57:41.209Z,5.5
2023-06-04T08:58:41.248Z,7.64286
2023-06-04T08:59:41.242Z,2.14286
2023-06-04T09:00:41.253Z,1.71429
2023-06-04T09:01:41.351Z,2
2023-06-04T09:02:41.326Z,1.85714
2023-06-04T09:03:41.332Z,1.92857
2023-06-04T09:04:41.318Z,2.42857
2023-06-04T09:05:41.326Z,3.35714
2023-06-04T09:06:41.369Z,1.71429
2023-06-04T09:07:41.349Z,1.71429
2023-06-04T09:08:41.350Z,1.85714
2023-06-04T09:09:41.388Z,1.85714
2023-06-04T09:10:41.372Z,2
2023-06-04T09:11:41.397Z,2.14286
2023-06-04T09:12:41.413Z,3
2023-06-04T09:13:41.443Z,2.92857
2023-06-04T09:14:41.488Z,8.5
2023-06-04T09:15:41.515Z,5.42857
2023-06-04T09:16:41.491Z,1.92857
2023-06-04T09:17:41.533Z,1.92857
2023-06-04T09:18:41.549Z,1.64286
2023-06-04T09:19:41.559Z,1.71429
2023-06-04T09:20:41.563Z,2.35714
2023-06-04T09:21:41.581Z,1.85714
2023-06-04T09:22:41.620Z,1.5
2023-06-04T09:23:41.646Z,1.71429
2023-06-04T09:24:41.620Z,1.71429
2023-06-04T09:25:41.639Z,1.85714
2023-06-04T09:26:41.641Z,1.5
2023-06-04T09:27:41.697Z,1.64286
2023-06-04T09:28:41.667Z,1.64286
2023-06-04T09:29:41.673Z,1.71429
2023-06-04T09:30:41.715Z,1.64286
2023-06-04T09:31:41.849Z,1.64286
2023-06-04T09:32:41.765Z,1.71429
2023-06-04T09:33:41.764Z,3.64286
2023-06-04T09:34:41.791Z,3.64286
2023-06-04T09:35:41.824Z,2
2023-06-04T09:36:41.844Z,1.64286
2023-06-04T09:37:41.864Z,1.64286
2023-06-04T09:38:41.868Z,1.85714
2023-06-04T09:39:41.893Z,1.71429
2023-06-04T09:40:41.941Z,2.35714
2023-06-04T09:41:42.019Z,1.71429
2023-06-04T09:42:42.024Z,1.5
2023-06-04T09:43:42.062Z,1.85714
2023-06-04T09:44:42.093Z,5.71429
2023-06-04T09:45:42.064Z,1.64286
2023-06-04T09:46:42.096Z,2
2023-06-04T09:47:42.149Z,6.5
2023-06-04T09:48:42.089Z,2.64286
2023-06-04T09:49:42.116Z,1.64286
2023-06-04T09:50:42.112Z,1.64286
2023-06-04T09:51:42.045Z,2.92857
2023-06-04T09:52:42.101Z,2.64286
2023-06-04T09:53:42.129Z,2.14286
2023-06-04T09:54:41.099Z,1.85714
2023-06-04T09:55:41.129Z,1.71429
2023-06-04T09:56:41.186Z,1.42857
2023-06-04T09:57:41.216Z,1.71429
2023-06-04T09:58:44.161Z,1.71429
2023-06-04T09:59:41.221Z,3
2023-06-04T10:00:41.257Z,5.14286
2023-06-04T10:01:41.337Z,3
2023-06-04T10:02:41.324Z,2.42857
2023-06-04T10:03:41.429Z,7
2023-06-04T10:04:41.320Z,1.71429
2023-06-04T10:05:41.339Z,1.71429
2023-06-04T10:06:41.337Z,1.64286
2023-06-04T10:07:41.360Z,1.71429
2023-06-04T10:08:41.385Z,1.71429
2023-06-04T10:09:41.383Z,2.21429
2023-06-04T10:10:41.416Z,1.92857
2023-06-04T10:11:41.426Z,2.14286
2023-06-04T10:12:41.411Z,1.92857
2023-06-04T10:13:41.423Z,1.71429
2023-06-04T10:14:41.460Z,2.14286
2023-06-04T10:15:41.435Z,2
2023-06-04T10:16:41.493Z,1.85714
2023-06-04T10:17:41.533Z,1.71429
2023-06-04T10:18:41.492Z,1.85714
2023-06-04T10:19:41.556Z,1.92857
2023-06-04T10:20:41.542Z,2.92857
2023-06-04T10:21:41.584Z,1.64286
2023-06-04T10:22:41.582Z,1.85714
2023-06-04T10:23:41.662Z,2.64286
2023-06-04T10:24:41.651Z,5.85714
2023-06-04T10:25:41.676Z,2.14286
2023-06-04T10:26:41.692Z,2
2023-06-04T10:27:41.701Z,1.92857
2023-06-04T10:28:41.723Z,1.85714
2023-06-04T10:29:41.746Z,1.85714
2023-06-04T10:30:41.766Z,1.64286
2023-06-04T10:31:41.797Z,1.85714
2023-06-04T10:32:41.850Z,1.64286
2023-06-04T10:33:41.812Z,2.92857
2023-06-04T10:34:41.826Z,3.14286
2023-06-04T10:35:41.827Z,3.21429
2023-06-04T10:36:41.829Z,3.14286
2023-06-04T10:37:41.858Z,9.71429
2023-06-04T10:38:41.848Z,4.5
2023-06-04T10:39:41.860Z,2.35714
2023-06-04T10:40:41.898Z,1.85714
2023-06-04T10:41:41.917Z,2
2023-06-04T10:42:41.935Z,1.71429
2023-06-04T10:43:41.961Z,1.85714
2023-06-04T10:44:41.983Z,2.21429
2023-06-04T10:45:42.034Z,1.71429
2023-06-04T10:46:42.276Z,2.5
2023-06-04T10:47:42.332Z,2
2023-06-04T10:48:42.079Z,1.92857
2023-06-04T10:49:41.097Z,1.85714
2023-06-04T10:50:41.115Z,1.71429
2023-06-04T10:51:41.125Z,2
2023-06-04T10:52:41.185Z,2.85714
2023-06-04T10:53:41.173Z,1.92857
2023-06-04T10:54:41.195Z,1.85714
2023-06-04T10:55:41.198Z,1.92857
2023-06-04T10:56:41.212Z,1.85714
2023-06-04T10:57:41.232Z,1.85714
2023-06-04T10:58:41.235Z,3.14286
2023-06-04T10:59:41.256Z,3.21429
2023-06-04T11:00:41.249Z,2
2023-06-04T11:01:41.284Z,1.5
2023-06-04T11:02:41.265Z,1.71429
2023-06-04T11:03:41.326Z,1.92857
2023-06-04T11:04:41.322Z,1.71429
2023-06-04T11:05:41.332Z,1.64286
2023-06-04T11:06:41.397Z,1.85714
2023-06-04T11:07:41.399Z,1.92857
2023-06-04T11:08:41.400Z,1.92857
2023-06-04T11:09:41.416Z,1.71429
2023-06-04T11:10:41.452Z,2.14286
2023-06-04T11:11:41.458Z,2
2023-06-04T11:12:41.485Z,1.85714
2023-06-04T11:13:41.531Z,2
2023-06-04T11:14:41.522Z,1.71429
2023-06-04T11:15:42.464Z,1.85714
2023-06-04T11:16:41.570Z,1.5
2023-06-04T11:17:41.582Z,1.85714
2023-06-04T11:18:41.621Z,1.64286
2023-06-04T11:19:41.608Z,1.85714
2023-06-04T11:20:41.612Z,1.85714
2023-06-04T11:21:41.620Z,1.92857
2023-06-04T11:22:41.625Z,2.64286
2023-06-04T11:23:41.645Z,3.35714
2023-06-04T11:24:41.636Z,3.92857
2023-06-04T11:25:41.665Z,3.71429
2023-06-04T11:26:47.940Z,4.35714
2023-06-04T11:27:41.675Z,2.64286
2023-06-04T11:28:41.712Z,8.71429
2023-06-04T11:29:41.728Z,7.92857
2023-06-04T11:30:41.769Z,8.71429
2023-06-04T11:31:41.829Z,5.21429
2023-06-04T11:32:41.839Z,4.14286
2023-06-04T11:33:41.807Z,6.42857
2023-06-04T11:34:41.832Z,2.71429
2023-06-04T11:35:41.865Z,3.35714
2023-06-04T11:36:41.898Z,1.85714
2023-06-04T11:37:41.925Z,1.64286
2023-06-04T11:38:41.900Z,1.92857
2023-06-04T11:39:41.913Z,2
2023-06-04T11:40:41.926Z,1.92857
2023-06-04T11:41:41.948Z,1.64286
2023-06-04T11:42:41.968Z,1.85714
2023-06-04T11:43:41.980Z,2.14286
2023-06-04T11:44:41.993Z,2.64286
2023-06-04T11:45:41.997Z,2.14286
2023-06-04T11:46:42.005Z,7.5
2023-06-04T11:47:42.131Z,9.35714
2023-06-04T11:48:42.069Z,8.64286
2023-06-04T11:49:42.029Z,5.21429
2023-06-04T11:50:42.062Z,6.5
2023-06-04T11:51:41.106Z,5
2023-06-04T11:52:41.112Z,3
2023-06-04T11:53:41.131Z,8.14286
2023-06-04T11:54:41.160Z,4.42857
2023-06-04T11:55:41.188Z,6.5
2023-06-04T11:56:41.222Z,6.35714
2023-06-04T11:57:41.271Z,6.64286
2023-06-04T11:58:41.256Z,9.21429
2023-06-04T11:59:41.270Z,12.5
2023-06-04T12:00:41.293Z,6.92857
2023-06-04T12:01:41.308Z,3.42857
2023-06-04T12:02:41.417Z,3.35714
2023-06-04T12:03:41.415Z,2
2023-06-04T12:04:41.344Z,1.85714
2023-06-04T12:05:41.404Z,2.21429
2023-06-04T12:06:41.370Z,1.71429
2023-06-04T12:07:41.389Z,1.92857
2023-06-04T12:08:41.395Z,2
2023-06-04T12:09:41.410Z,2
2023-06-04T12:10:41.468Z,1.71429
2023-06-04T12:11:41.423Z,2
2023-06-04T12:12:41.433Z,18.1429
2023-06-04T12:13:41.468Z,10
2023-06-04T12:14:41.581Z,4
2023-06-04T12:15:41.515Z,1.85714
2023-06-04T12:16:41.556Z,1.92857
2023-06-04T12:17:41.609Z,1.71429
2023-06-04T12:18:41.592Z,2
2023-06-04T12:19:41.752Z,1.92857
2023-06-04T12:20:41.625Z,1.85714
2023-06-04T12:21:41.633Z,1.85714
2023-06-04T12:22:41.658Z,2
2023-06-04T12:23:41.714Z,2.42857
2023-06-04T12:24:41.697Z,2
2023-06-04T12:25:41.734Z,1.85714
2023-06-04T12:26:41.819Z,2.35714
2023-06-04T12:27:41.743Z,2.21429